Time;durP1;ratioP1;P1;durP2;ratioP2;P2;SDS_P1;SDS_P2;PMS_P1;PMS_P2;Temp;Humidity;BMP_temperature;BMP_pressure;BME280_temperature;BME280_humidity;BME280_pressure;Samples;Min_cycle;Max_cycle;Signal;HPM_P1;HPM_P2
2021/12/28 00:01:08;;;;;;;46.75;22.27;;;;;;;1.36;81.46;99817.53;5050435;28;20045;-66
2021/12/28 00:03:36;;;;;;;48.40;20.58;;;;;;;1.36;81.54;99825.28;5049659;28;20572;-66
2021/12/28 00:06:03;;;;;;;49.17;22.17;;;;;;;1.22;82.20;99817.09;5047812;28;20045;-66
2021/12/28 00:08:30;;;;;;;50.22;20.20;;;;;;;1.46;81.13;99812.06;5046630;28;20044;-66
2021/12/28 00:10:56;;;;;;;43.05;19.58;;;;;;;1.41;81.17;99813.91;5045478;28;20559;-66
2021/12/28 00:13:24;;;;;;;47.30;20.55;;;;;;;1.45;81.10;99817.25;5044919;28;20049;-66
2021/12/28 00:16:02;;;;;;;50.50;20.42;;;;;;;1.10;82.29;99801.94;5039151;28;20071;-65
2021/12/28 00:18:29;;;;;;;43.45;18.02;;;;;;;0.94;82.72;99807.53;5047305;28;20535;-65
2021/12/28 00:20:57;;;;;;;48.55;19.27;;;;;;;1.18;82.73;99805.16;5049793;28;20095;-65
2021/12/28 00:23:28;;;;;;;51.63;21.05;;;;;;;1.30;82.11;99805.63;5050614;28;20138;-65
2021/12/28 00:25:55;;;;;;;57.20;23.80;;;;;;;1.18;82.54;99800.00;5050779;28;20416;-65
2021/12/28 00:28:23;;;;;;;47.05;21.35;;;;;;;1.54;81.12;99804.09;5050017;28;20072;-65
2021/12/28 00:30:50;;;;;;;50.95;20.77;;;;;;;1.33;81.56;99807.31;5050266;28;20049;-65
2021/12/28 00:33:18;;;;;;;54.25;22.45;;;;;;;1.06;83.12;99798.59;5051096;28;20081;-65
2021/12/28 00:35:45;;;;;;;50.55;18.50;;;;;;;1.21;82.29;99799.91;5050887;28;20037;-66
2021/12/28 00:38:18;;;;;;;48.20;19.88;;;;;;;1.33;81.72;99791.81;5050188;28;20749;-66
2021/12/28 00:40:44;;;;;;;41.70;18.70;;;;;;;0.97;82.99;99781.63;5037008;28;20047;-66
2021/12/28 00:43:10;;;;;;;45.63;21.30;;;;;;;1.04;83.20;99778.84;5050252;28;20048;-66
2021/12/28 00:45:38;;;;;;;53.90;21.88;;;;;;;1.21;82.22;99790.41;5049773;28;20072;-66
2021/12/28 00:48:05;;;;;;;43.25;20.05;;;;;;;1.46;81.04;99790.53;5049048;28;20072;-66
2021/12/28 00:50:32;;;;;;;45.25;20.58;;;;;;;1.41;81.38;99795.84;5049879;28;20144;-66
2021/12/28 00:52:59;;;;;;;51.60;22.05;;;;;;;1.31;81.64;99793.56;5048315;28;20103;-67
2021/12/28 00:55:25;;;;;;;48.63;20.55;;;;;;;1.52;81.15;99785.19;5029651;28;20072;-66
2021/12/28 00:57:53;;;;;;;50.97;20.08;;;;;;;1.48;80.86;99786.16;5047344;28;20080;-66
2021/12/28 01:00:22;;;;;;;45.50;20.67;;;;;;;1.26;81.75;99787.69;5049494;28;20052;-66
2021/12/28 01:02:50;;;;;;;55.50;23.45;;;;;;;1.36;81.57;99789.97;5049778;28;20469;-66
2021/12/28 01:05:17;;;;;;;55.90;22.80;;;;;;;1.23;82.01;99782.63;5035964;28;20065;-66
2021/12/28 01:07:44;;;;;;;46.90;20.80;;;;;;;1.62;80.79;99783.19;5049455;28;20420;-66
2021/12/28 01:10:13;;;;;;;49.38;21.63;;;;;;;1.74;80.03;99775.03;5046934;28;20057;-67
2021/12/28 01:12:39;;;;;;;50.47;21.92;;;;;;;1.25;81.83;99776.53;5043724;28;20044;-67
2021/12/28 01:15:08;;;;;;;59.35;23.10;;;;;;;1.12;83.04;99774.31;5049803;28;20068;-66
2021/12/28 01:17:34;;;;;;;55.90;22.75;;;;;;;1.20;83.14;99780.97;5049359;28;20052;-67
2021/12/28 01:20:05;;;;;;;45.65;19.77;;;;;;;1.32;82.40;99778.03;5050896;28;20083;-66
2021/12/28 01:22:32;;;;;;;49.17;20.20;;;;;;;1.14;82.89;99782.91;5050253;28;20412;-66
2021/12/28 01:24:58;;;;;;;55.97;21.13;;;;;;;1.22;83.49;99768.03;5049607;28;20563;-66
2021/12/28 01:27:25;;;;;;;54.55;22.25;;;;;;;1.30;83.11;99768.63;5048355;28;20458;-66
2021/12/28 01:29:51;;;;;;;48.80;20.10;;;;;;;1.14;83.77;99768.25;5049191;28;20491;-66
2021/12/28 01:32:18;;;;;;;57.75;22.85;;;;;;;0.97;84.92;99771.31;5049881;28;20076;-66
2021/12/28 01:34:44;;;;;;;50.90;22.73;;;;;;;1.15;84.27;99769.06;5049189;28;20444;-66
2021/12/28 01:37:12;;;;;;;56.50;23.30;;;;;;;1.12;84.46;99761.41;5048844;28;20094;-66
2021/12/28 01:39:39;;;;;;;52.63;21.80;;;;;;;0.99;85.31;99758.38;5049066;28;20154;-66
2021/12/28 01:42:07;;;;;;;50.17;20.45;;;;;;;1.08;85.07;99767.56;5049092;28;20134;-66
2021/12/28 01:44:34;;;;;;;51.30;21.38;;;;;;;1.25;84.26;99747.28;5049185;28;20049;-66
2021/12/28 01:47:01;;;;;;;48.45;21.35;;;;;;;1.43;83.99;99744.16;5044213;28;20516;-66
2021/12/28 01:49:28;;;;;;;53.05;22.05;;;;;;;1.61;82.95;99743.56;5044550;28;20162;-67
2021/12/28 01:51:55;;;;;;;50.53;20.98;;;;;;;1.57;82.99;99733.38;5047157;28;20126;-66
2021/12/28 01:54:23;;;;;;;47.90;20.75;;;;;;;1.67;82.60;99738.22;5046455;28;20490;-66
2021/12/28 01:56:49;;;;;;;51.47;20.50;;;;;;;1.43;83.52;99729.50;5047036;28;20072;-67
2021/12/28 01:59:19;;;;;;;42.80;19.35;;;;;;;1.34;84.42;99731.50;5046633;28;20068;-66
2021/12/28 02:01:46;;;;;;;50.70;21.53;;;;;;;1.44;84.26;99728.56;5044899;28;20580;-66
2021/12/28 02:04:15;;;;;;;52.78;20.63;;;;;;;1.60;83.81;99720.34;5045499;28;20326;-66
2021/12/28 02:06:41;;;;;;;49.88;20.65;;;;;;;1.79;82.62;99724.06;5045675;28;20060;-66
2021/12/28 02:09:08;;;;;;;50.85;19.88;;;;;;;1.63;83.15;99731.44;5046626;28;20052;-66
2021/12/28 02:11:36;;;;;;;51.72;22.90;;;;;;;1.84;82.19;99735.09;5044425;28;20521;-66
2021/12/28 02:14:05;;;;;;;48.38;22.92;;;;;;;1.71;82.31;99719.13;5043719;28;20413;-66
2021/12/28 02:16:32;;;;;;;51.30;22.90;;;;;;;2.16;80.95;99718.50;5044118;28;20071;-66
2021/12/28 02:18:59;;;;;;;45.38;20.02;;;;;;;2.21;79.86;99719.22;5045310;28;20171;-66
2021/12/28 02:21:30;;;;;;;47.60;21.10;;;;;;;2.28;80.02;99718.09;5044760;28;20044;-66
2021/12/28 02:23:57;;;;;;;48.08;21.75;;;;;;;2.23;79.78;99718.25;5045507;28;20103;-66
2021/12/28 02:26:23;;;;;;;46.88;22.30;;;;;;;2.56;78.54;99705.03;5045127;28;20045;-66
2021/12/28 02:28:50;;;;;;;51.55;21.60;;;;;;;2.63;78.18;99712.53;5045997;28;20041;-66
2021/12/28 02:31:16;;;;;;;52.10;20.88;;;;;;;2.41;78.92;99706.44;5045884;28;20048;-66
2021/12/28 02:33:43;;;;;;;54.38;21.08;;;;;;;2.23;79.22;99701.91;5043780;28;20513;-66
2021/12/28 02:36:09;;;;;;;41.65;20.58;;;;;;;1.98;80.72;99695.88;5045968;28;20150;-66
2021/12/28 02:38:37;;;;;;;51.83;22.17;;;;;;;1.92;81.39;99692.56;5045963;28;20064;-66
2021/12/28 02:41:04;;;;;;;48.45;20.85;;;;;;;2.24;80.03;99677.72;5046246;28;20044;-66
2021/12/28 02:43:31;;;;;;;48.20;20.67;;;;;;;2.00;80.46;99670.78;5039743;28;20049;-66
2021/12/28 02:46:01;;;;;;;52.03;21.60;;;;;;;2.07;80.09;99673.13;5046202;28;20119;-67
2021/12/28 02:48:28;;;;;;;44.03;20.23;;;;;;;2.06;80.38;99666.28;5044643;28;20406;-67
2021/12/28 02:50:58;;;;;;;52.55;21.52;;;;;;;2.14;80.27;99677.22;5046344;28;20048;-66
2021/12/28 02:53:25;;;;;;;54.15;23.58;;;;;;;2.14;80.29;99660.84;5046043;28;20682;-66
2021/12/28 02:55:54;;;;;;;46.45;21.02;;;;;;;2.07;80.52;99672.31;5046302;28;20073;-66
2021/12/28 02:58:28;;;;;;;53.38;22.77;;;;;;;1.95;81.25;99671.81;5045011;28;20056;-66
2021/12/28 03:00:57;;;;;;;49.72;21.05;;;;;;;2.41;79.75;99663.28;5045860;28;20064;-66
2021/12/28 03:03:26;;;;;;;53.17;23.17;;;;;;;2.15;80.40;99667.69;5045241;28;20493;-66
2021/12/28 03:05:56;;;;;;;57.38;22.58;;;;;;;1.99;80.75;99664.81;5045989;28;20076;-66
2021/12/28 03:08:25;;;;;;;50.38;22.15;;;;;;;1.68;82.93;99672.72;5045506;28;20146;-66
2021/12/28 03:10:54;;;;;;;51.88;22.42;;;;;;;1.65;82.90;99690.91;5041800;28;20065;-66
2021/12/28 03:13:23;;;;;;;44.28;21.67;;;;;;;1.93;82.36;99686.53;5044134;28;20077;-66
2021/12/28 03:15:49;;;;;;;49.75;21.88;;;;;;;2.33;80.30;99674.81;5039371;28;20464;-66
2021/12/28 03:18:16;;;;;;;63.10;22.10;;;;;;;2.37;80.32;99664.31;5045047;28;20077;-66
2021/12/28 03:20:42;;;;;;;43.83;20.90;;;;;;;2.27;81.09;99669.84;5041907;28;20408;-66
2021/12/28 03:23:09;;;;;;;47.25;21.77;;;;;;;2.59;80.20;99673.91;5045089;28;20041;-66
2021/12/28 03:25:35;;;;;;;53.03;22.38;;;;;;;2.30;81.27;99670.59;5033892;28;20049;-66
2021/12/28 03:28:04;;;;;;;46.00;22.00;;;;;;;1.92;83.19;99673.66;5045561;28;20142;-66
2021/12/28 03:30:30;;;;;;;48.38;20.88;;;;;;;1.99;83.16;99671.72;5046590;28;20102;-66
2021/12/28 03:32:57;;;;;;;53.33;21.13;;;;;;;2.11;82.20;99677.28;5049053;28;20041;-66
2021/12/28 03:35:23;;;;;;;51.45;20.98;;;;;;;1.96;83.05;99670.91;5049091;28;20773;-66
2021/12/28 03:37:50;;;;;;;40.70;19.35;;;;;;;2.23;81.72;99661.34;5048075;28;20045;-66
2021/12/28 03:40:17;;;;;;;47.03;20.58;;;;;;;2.18;82.10;99657.25;5048498;28;20129;-66
2021/12/28 03:42:45;;;;;;;46.90;19.17;;;;;;;2.49;80.90;99655.25;5043480;28;20114;-66
2021/12/28 03:45:14;;;;;;;45.95;18.77;;;;;;;2.34;81.55;99654.06;5047185;28;20173;-66
2021/12/28 03:47:41;;;;;;;47.65;20.17;;;;;;;1.97;82.76;99651.06;5047859;28;20111;-66
2021/12/28 03:50:09;;;;;;;40.72;19.42;;;;;;;2.05;83.07;99646.47;5048315;28;20037;-66
2021/12/28 03:52:36;;;;;;;46.33;21.33;;;;;;;2.09;82.44;99639.47;5048013;28;20061;-66
2021/12/28 03:55:04;;;;;;;43.50;19.05;;;;;;;2.52;80.85;99642.22;5047036;28;20478;-67
2021/12/28 03:57:30;;;;;;;43.65;19.23;;;;;;;2.62;80.42;99638.41;5047665;28;20060;-67
2021/12/28 03:59:57;;;;;;;44.85;19.23;;;;;;;2.45;80.75;99627.81;5040976;28;20090;-67
2021/12/28 04:02:24;;;;;;;34.83;16.10;;;;;;;2.52;80.64;99631.00;5047509;28;20045;-67
2021/12/28 04:04:51;;;;;;;45.65;19.17;;;;;;;2.35;81.46;99626.47;5048427;28;20119;-67
2021/12/28 04:07:20;;;;;;;43.05;18.88;;;;;;;2.55;80.84;99610.22;5047579;28;20053;-67
2021/12/28 04:09:58;;;;;;;50.80;20.77;;;;;;;2.61;80.30;99610.00;5048741;28;20045;-67
2021/12/28 04:12:25;;;;;;;43.72;19.13;;;;;;;2.57;80.58;99617.03;5046795;28;20075;-67
2021/12/28 04:14:51;;;;;;;48.10;20.40;;;;;;;2.71;80.33;99616.50;5048625;28;20562;-67
2021/12/28 04:17:18;;;;;;;42.33;17.13;;;;;;;3.02;79.17;99623.94;5046475;28;20049;-67
2021/12/28 04:19:47;;;;;;;42.50;19.52;;;;;;;3.15;77.98;99614.78;5048022;28;20062;-67
2021/12/28 04:22:13;;;;;;;45.03;20.90;;;;;;;2.71;79.85;99617.34;5047999;28;20056;-67
2021/12/28 04:24:40;;;;;;;48.33;20.50;;;;;;;2.94;79.01;99612.16;5046937;28;20048;-67
2021/12/28 04:27:06;;;;;;;46.78;20.80;;;;;;;2.76;79.54;99610.25;5046369;28;20073;-67
2021/12/28 04:29:33;;;;;;;49.65;20.08;;;;;;;2.73;80.03;99615.56;5046944;28;20230;-67
2021/12/28 04:31:59;;;;;;;41.55;19.50;;;;;;;2.83;79.77;99606.53;5048532;28;20090;-67
2021/12/28 04:34:26;;;;;;;45.42;19.27;;;;;;;2.60;80.48;99610.88;5047358;28;20068;-67
2021/12/28 04:36:53;;;;;;;46.03;21.05;;;;;;;2.50;81.52;99597.44;5046502;28;20202;-67
2021/12/28 04:39:21;;;;;;;42.92;19.38;;;;;;;2.83;80.26;99600.50;5043693;28;20493;-67
2021/12/28 04:41:47;;;;;;;45.55;20.65;;;;;;;2.77;80.37;99593.81;5046743;28;20137;-67
2021/12/28 04:44:14;;;;;;;42.15;20.33;;;;;;;2.93;80.09;99587.16;5045714;28;20052;-67
2021/12/28 04:46:41;;;;;;;46.38;20.33;;;;;;;2.48;81.85;99578.53;5045726;28;20053;-67
2021/12/28 04:49:07;;;;;;;46.25;18.45;;;;;;;2.10;83.65;99573.94;5045306;28;20064;-68
2021/12/28 04:51:33;;;;;;;57.55;21.55;;;;;;;2.34;82.77;99570.44;5046847;28;20045;-67
2021/12/28 04:54:06;;;;;;;50.03;22.38;;;;;;;2.51;82.28;99568.09;5047002;28;20045;-67
2021/12/28 04:56:32;;;;;;;48.95;21.80;;;;;;;2.52;82.11;99574.09;5046738;28;20151;-67
2021/12/28 04:58:59;;;;;;;44.70;20.27;;;;;;;2.46;82.60;99575.19;5045357;28;20071;-67
2021/12/28 05:01:25;;;;;;;49.63;21.42;;;;;;;2.45;82.78;99578.66;5047177;28;20045;-67
2021/12/28 05:03:51;;;;;;;49.58;21.52;;;;;;;2.43;82.92;99568.38;5047578;28;20073;-68
2021/12/28 05:06:17;;;;;;;46.78;20.83;;;;;;;2.55;82.22;99566.22;5046927;28;20077;-68
2021/12/28 05:08:44;;;;;;;48.47;22.05;;;;;;;2.82;81.35;99570.34;5044034;28;20474;-67
2021/12/28 05:11:12;;;;;;;42.65;19.60;;;;;;;2.46;83.17;99567.41;5041539;28;20505;-67
2021/12/28 05:13:38;;;;;;;51.33;20.92;;;;;;;2.49;83.28;99574.22;5047234;28;20055;-67
2021/12/28 05:16:06;;;;;;;46.83;21.40;;;;;;;2.56;82.66;99565.31;5042873;28;20099;-67
2021/12/28 05:18:32;;;;;;;54.28;20.00;;;;;;;2.44;83.46;99572.63;5048114;28;20044;-68
2021/12/28 05:20:59;;;;;;;44.53;19.60;;;;;;;2.39;83.51;99561.63;5048216;28;20118;-68
2021/12/28 05:23:25;;;;;;;50.17;20.92;;;;;;;2.23;84.53;99557.06;5049153;28;20111;-68
2021/12/28 05:25:51;;;;;;;53.50;22.58;;;;;;;2.37;83.81;99559.97;5049389;28;20095;-68
2021/12/28 05:28:19;;;;;;;50.85;22.42;;;;;;;2.42;83.99;99558.94;5048735;28;20110;-68
2021/12/28 05:30:45;;;;;;;46.88;20.75;;;;;;;2.73;82.50;99556.03;5046411;28;20064;-68
2021/12/28 05:33:12;;;;;;;42.30;21.17;;;;;;;2.64;83.38;99553.78;5048604;28;20084;-68
2021/12/28 05:35:38;;;;;;;43.42;20.75;;;;;;;2.65;83.13;99545.13;5047617;28;20162;-68
2021/12/28 05:38:05;;;;;;;48.67;20.52;;;;;;;2.78;82.46;99546.31;5047424;28;20555;-68
2021/12/28 05:40:31;;;;;;;50.80;22.35;;;;;;;3.13;80.78;99549.25;5046561;28;20104;-68
2021/12/28 05:42:57;;;;;;;45.60;20.08;;;;;;;3.35;79.59;99535.38;5049392;28;20451;-68
2021/12/28 05:45:25;;;;;;;49.53;23.50;;;;;;;3.27;79.99;99536.59;5046341;28;20076;-68
2021/12/28 05:47:52;;;;;;;48.88;21.55;;;;;;;3.05;81.05;99533.19;5047399;28;20493;-68
2021/12/28 05:50:18;;;;;;;47.90;22.05;;;;;;;2.94;81.66;99536.22;5046232;28;20092;-68
2021/12/28 05:52:44;;;;;;;44.25;20.35;;;;;;;2.72;82.79;99541.41;5046724;28;20073;-68
2021/12/28 05:55:11;;;;;;;47.00;20.92;;;;;;;3.16;81.25;99526.69;5048534;28;20072;-69
2021/12/28 05:57:38;;;;;;;50.78;23.67;;;;;;;3.41;79.95;99519.56;5048666;28;20076;-69
2021/12/28 06:00:06;;;;;;;52.85;22.77;;;;;;;2.90;82.36;99525.13;5047160;28;20433;-69
2021/12/28 06:02:33;;;;;;;46.38;20.30;;;;;;;2.69;83.12;99513.03;5047779;28;20127;-69
2021/12/28 06:05:00;;;;;;;48.83;22.27;;;;;;;2.75;83.61;99504.19;5047809;28;20445;-69
2021/12/28 06:07:27;;;;;;;52.90;21.95;;;;;;;3.10;81.95;99511.41;5048806;28;20068;-69
2021/12/28 06:09:54;;;;;;;50.22;21.25;;;;;;;2.96;82.51;99515.44;5047292;28;20037;-69
2021/12/28 06:12:21;;;;;;;55.58;22.30;;;;;;;2.48;84.63;99515.63;5048767;28;20041;-69
2021/12/28 06:14:47;;;;;;;56.67;22.45;;;;;;;2.67;84.35;99501.91;5045953;28;20071;-69
2021/12/28 06:17:13;;;;;;;46.88;20.17;;;;;;;3.04;82.28;99508.19;5047636;28;20069;-69
2021/12/28 06:19:41;;;;;;;45.40;21.42;;;;;;;3.01;82.67;99505.72;5046423;28;20088;-69
2021/12/28 06:22:07;;;;;;;47.40;21.15;;;;;;;3.03;82.50;99499.56;5048526;28;20095;-69
2021/12/28 06:24:34;;;;;;;46.88;20.38;;;;;;;2.74;83.86;99508.50;5047868;28;20041;-69
2021/12/28 06:27:00;;;;;;;48.85;23.10;;;;;;;2.78;83.59;99504.91;5047091;28;20069;-69
2021/12/28 06:29:27;;;;;;;50.08;21.60;;;;;;;2.72;84.09;99491.38;5046553;28;20072;-69
2021/12/28 06:31:53;;;;;;;47.95;21.77;;;;;;;2.85;83.64;99485.63;5048442;28;20053;-69
2021/12/28 06:34:19;;;;;;;54.38;22.50;;;;;;;3.06;82.78;99471.00;5047833;28;20040;-68
2021/12/28 06:36:47;;;;;;;55.58;21.92;;;;;;;3.06;82.78;99483.09;5048011;28;20075;-69
2021/12/28 06:39:14;;;;;;;53.15;23.67;;;;;;;2.71;84.77;99490.53;5046586;28;20074;-69
2021/12/28 06:41:40;;;;;;;54.22;22.45;;;;;;;2.39;86.01;99498.69;5048300;28;20122;-69
2021/12/28 06:44:07;;;;;;;61.47;23.30;;;;;;;2.45;85.84;99488.09;5045071;28;20126;-69
2021/12/28 06:46:33;;;;;;;47.72;21.92;;;;;;;2.91;84.45;99490.59;5045703;28;20413;-69
2021/12/28 06:49:00;;;;;;;47.28;22.88;;;;;;;3.02;83.31;99491.88;5042192;28;20095;-69
2021/12/28 06:51:26;;;;;;;51.88;22.35;;;;;;;2.91;84.20;99497.50;5046875;28;20102;-69
2021/12/28 06:53:54;;;;;;;44.13;20.00;;;;;;;3.03;83.43;99483.22;5044921;28;20049;-69
2021/12/28 06:56:20;;;;;;;49.75;21.65;;;;;;;2.92;83.76;99493.97;5046948;28;20106;-69
2021/12/28 06:58:47;;;;;;;56.60;22.15;;;;;;;3.09;83.86;99480.38;5047695;28;20076;-69
2021/12/28 07:01:13;;;;;;;49.97;23.13;;;;;;;3.17;82.67;99489.53;5046542;28;20146;-69
2021/12/28 07:03:39;;;;;;;52.53;24.38;;;;;;;3.40;81.83;99480.75;5050945;28;20049;-69
2021/12/28 07:06:07;;;;;;;51.80;23.52;;;;;;;3.50;81.07;99487.25;5048230;28;20041;-69
2021/12/28 07:08:34;;;;;;;50.35;23.15;;;;;;;3.43;81.86;99491.00;5050589;28;20124;-69
2021/12/28 07:11:02;;;;;;;53.63;25.60;;;;;;;3.56;81.16;99499.09;5051695;28;20057;-69
2021/12/28 07:13:28;;;;;;;53.35;22.63;;;;;;;3.28;82.40;99492.50;5051607;28;20049;-69
2021/12/28 07:15:54;;;;;;;47.63;22.42;;;;;;;3.34;82.18;99489.66;5051309;28;20076;-69
2021/12/28 07:18:21;;;;;;;49.60;22.20;;;;;;;3.40;81.51;99491.13;5051888;28;20056;-69
2021/12/28 07:20:48;;;;;;;47.33;21.45;;;;;;;3.95;79.58;99489.59;5051258;28;20069;-69
2021/12/28 07:23:14;;;;;;;59.25;23.55;;;;;;;3.95;79.39;99497.38;5033482;28;20049;-69
2021/12/28 07:25:41;;;;;;;51.55;22.83;;;;;;;3.98;79.10;99496.38;5031904;28;20045;-69
2021/12/28 07:28:09;;;;;;;54.85;23.85;;;;;;;3.68;80.07;99494.22;5051295;28;20099;-69
2021/12/28 07:30:35;;;;;;;51.10;22.45;;;;;;;3.63;80.31;99497.91;5051444;28;20394;-69
2021/12/28 07:33:01;;;;;;;58.42;24.73;;;;;;;3.49;81.27;99498.53;5051485;28;20122;-69
2021/12/28 07:35:28;;;;;;;59.45;23.90;;;;;;;3.42;81.61;99494.50;5051763;28;20064;-68
2021/12/28 07:37:54;;;;;;;49.83;21.92;;;;;;;3.30;82.76;99492.41;5048442;28;20079;-68
2021/12/28 07:40:22;;;;;;;53.38;22.60;;;;;;;3.48;82.41;99490.78;5051798;28;20049;-68
2021/12/28 07:42:48;;;;;;;52.35;23.17;;;;;;;3.47;82.53;99483.94;5051335;28;20064;-69
2021/12/28 07:45:17;;;;;;;56.20;22.90;;;;;;;3.49;82.66;99485.56;5049690;28;20483;-68
2021/12/28 07:47:44;;;;;;;57.28;24.00;;;;;;;3.71;81.65;99488.91;5049067;28;20072;-68
2021/12/28 07:50:14;;;;;;;54.72;23.27;;;;;;;3.97;80.40;99479.13;5051441;28;20041;-68
2021/12/28 07:52:42;;;;;;;53.05;23.13;;;;;;;3.71;81.30;99481.13;5046947;28;20762;-68
2021/12/28 07:55:10;;;;;;;51.45;22.67;;;;;;;3.50;82.10;99484.66;5044876;28;20102;-68
2021/12/28 07:57:37;;;;;;;49.90;22.38;;;;;;;3.79;81.46;99492.00;5045600;28;20037;-68
2021/12/28 08:00:05;;;;;;;51.00;22.40;;;;;;;3.88;81.08;99486.41;5061006;28;20064;-68
2021/12/28 08:02:33;;;;;;;49.92;22.45;;;;;;;3.83;81.09;99479.75;5051293;28;20045;-68
2021/12/28 08:04:59;;;;;;;54.17;22.73;;;;;;;3.48;82.81;99477.84;5051106;28;21771;-68
2021/12/28 08:07:26;;;;;;;46.67;21.38;;;;;;;3.60;82.63;99480.75;5045047;28;20518;-68
2021/12/28 08:09:52;;;;;;;59.40;21.83;;;;;;;3.41;82.56;99474.69;5048307;28;20122;-69
2021/12/28 08:12:18;;;;;;;47.63;22.52;;;;;;;3.75;81.79;99472.31;5050349;28;20073;-69
2021/12/28 08:14:45;;;;;;;55.10;23.58;;;;;;;3.65;82.06;99473.63;5048745;28;20126;-69
2021/12/28 08:17:11;;;;;;;51.75;20.95;;;;;;;3.13;84.29;99482.78;5050205;28;20111;-68
2021/12/28 08:19:39;;;;;;;42.75;18.83;;;;;;;3.38;83.77;99488.63;5050019;28;20040;-69
2021/12/28 08:22:05;;;;;;;51.53;21.13;;;;;;;3.40;83.78;99483.34;5050927;28;20049;-68
2021/12/28 08:24:33;;;;;;;46.70;20.73;;;;;;;3.25;84.48;99484.84;5049913;28;20045;-68
2021/12/28 08:27:00;;;;;;;46.33;21.55;;;;;;;3.07;85.25;99484.78;5050394;28;20121;-68
2021/12/28 08:29:26;;;;;;;46.63;19.83;;;;;;;3.11;85.16;99470.78;5050142;28;20110;-69
2021/12/28 08:31:53;;;;;;;45.58;17.30;;;;;;;3.07;85.28;99469.25;5050889;28;20068;-69
2021/12/28 08:34:19;;;;;;;46.35;20.30;;;;;;;3.32;84.78;99469.91;5050520;28;20041;-69
2021/12/28 08:36:47;;;;;;;43.00;19.50;;;;;;;2.76;86.90;99473.06;5050024;28;20064;-69
2021/12/28 08:39:14;;;;;;;35.40;18.25;;;;;;;2.89;86.96;99466.47;5050168;28;20171;-70
2021/12/28 08:41:40;;;;;;;41.60;19.67;;;;;;;3.17;85.48;99462.78;5050505;28;20041;-70
2021/12/28 08:44:07;;;;;;;41.40;18.52;;;;;;;3.23;85.33;99463.34;5043319;28;20119;-70
2021/12/28 08:46:33;;;;;;;40.67;18.60;;;;;;;3.19;85.47;99463.53;5033031;28;20049;-70
2021/12/28 08:48:59;;;;;;;45.63;19.40;;;;;;;3.46;84.12;99464.97;5049493;28;20045;-70
2021/12/28 08:51:26;;;;;;;39.03;18.88;;;;;;;3.28;85.05;99455.38;5036284;28;20118;-70
2021/12/28 08:53:53;;;;;;;44.85;18.80;;;;;;;3.31;85.16;99450.06;5048546;28;20098;-70
2021/12/28 08:56:20;;;;;;;44.42;19.48;;;;;;;3.32;84.90;99451.75;5047851;28;20068;-70
2021/12/28 08:58:46;;;;;;;42.40;19.35;;;;;;;3.43;84.02;99457.34;5041721;28;20045;-70
2021/12/28 09:01:13;;;;;;;37.15;19.35;;;;;;;3.71;83.08;99452.63;5044332;28;20536;-71
2021/12/28 09:03:39;;;;;;;40.25;18.45;;;;;;;3.61;82.80;99455.69;5048045;28;20122;-71
2021/12/28 09:06:06;;;;;;;52.00;20.67;;;;;;;3.64;83.33;99455.53;5048241;28;20065;-70
2021/12/28 09:08:32;;;;;;;42.22;18.75;;;;;;;3.60;82.76;99461.78;5048748;28;20055;-70
2021/12/28 09:11:00;;;;;;;41.53;19.40;;;;;;;3.29;84.51;99465.66;5031957;28;20045;-70
2021/12/28 09:13:26;;;;;;;44.33;20.77;;;;;;;3.71;83.12;99462.13;5030393;28;20120;-70
2021/12/28 09:15:53;;;;;;;46.17;20.73;;;;;;;3.75;82.27;99455.91;5029159;28;20069;-70
2021/12/28 09:18:20;;;;;;;41.10;20.10;;;;;;;3.84;82.18;99452.94;5045551;28;20059;-69
2021/12/28 09:20:47;;;;;;;50.58;21.52;;;;;;;3.55;82.90;99459.38;5041926;28;20091;-69
2021/12/28 09:23:14;;;;;;;46.10;20.92;;;;;;;3.86;82.09;99459.72;5029135;28;20069;-69
2021/12/28 09:25:41;;;;;;;43.22;19.48;;;;;;;4.03;81.32;99450.34;5046351;28;20064;-68
2021/12/28 09:28:10;;;;;;;47.53;18.67;;;;;;;3.72;81.81;99446.53;5038493;28;20099;-69
2021/12/28 09:30:38;;;;;;;46.20;21.00;;;;;;;3.79;81.73;99447.09;5046193;28;20048;-70
2021/12/28 09:33:05;;;;;;;40.30;19.63;;;;;;;4.07;81.11;99441.50;5048829;28;20122;-70
2021/12/28 09:35:32;;;;;;;45.33;20.08;;;;;;;3.92;81.64;99441.28;5048969;28;20048;-70
2021/12/28 09:37:58;;;;;;;41.22;19.88;;;;;;;3.99;80.95;99441.84;5048284;28;20076;-69
2021/12/28 09:40:25;;;;;;;36.08;17.65;;;;;;;3.80;81.89;99441.00;5045196;28;20094;-70
2021/12/28 09:42:51;;;;;;;42.28;20.35;;;;;;;3.54;83.50;99433.53;5047335;28;20069;-70
2021/12/28 09:45:19;;;;;;;38.47;18.88;;;;;;;4.13;81.75;99426.50;5048466;28;20049;-70
2021/12/28 09:47:45;;;;;;;40.70;18.75;;;;;;;4.48;80.39;99424.84;5047767;28;20118;-70
2021/12/28 09:50:15;;;;;;;36.67;18.48;;;;;;;4.24;80.49;99423.41;5048534;28;20057;-70
2021/12/28 09:52:44;;;;;;;33.40;17.85;;;;;;;4.17;81.12;99424.63;5042315;28;20049;-69
2021/12/28 09:55:11;;;;;;;37.42;18.17;;;;;;;3.86;81.84;99418.22;5042353;28;20069;-69
2021/12/28 09:57:37;;;;;;;37.15;18.30;;;;;;;3.90;82.29;99426.72;5047183;28;20456;-69
2021/12/28 10:00:08;;;;;;;31.90;16.40;;;;;;;4.33;80.92;99416.03;5047128;28;20084;-68
2021/12/28 10:02:36;;;;;;;36.53;18.40;;;;;;;4.36;80.23;99413.28;5047086;28;20095;-68
2021/12/28 10:05:07;;;;;;;38.60;18.17;;;;;;;4.25;80.98;99417.31;5048244;28;20051;-68
2021/12/28 10:07:35;;;;;;;36.97;17.40;;;;;;;4.33;80.55;99410.84;5041701;28;20087;-68
2021/12/28 10:10:04;;;;;;;43.47;18.98;;;;;;;4.63;79.30;99407.69;5048389;28;20275;-68
2021/12/28 10:12:33;;;;;;;39.67;19.73;;;;;;;4.85;78.67;99403.97;5048939;28;20135;-68
2021/12/28 10:15:05;;;;;;;36.40;19.40;;;;;;;5.17;77.40;99401.53;5048881;28;20061;-68
2021/12/28 10:17:34;;;;;;;36.45;18.55;;;;;;;5.36;77.11;99405.69;5048539;28;20060;-68
2021/12/28 10:20:05;;;;;;;34.92;17.20;;;;;;;5.25;77.64;99402.78;5045130;28;20041;-68
2021/12/28 10:22:34;;;;;;;36.90;17.85;;;;;;;5.22;77.75;99410.75;5048786;28;20049;-68
2021/12/28 10:25:05;;;;;;;34.03;16.35;;;;;;;4.96;78.95;99399.97;5048759;28;20446;-67
2021/12/28 10:27:33;;;;;;;34.92;17.30;;;;;;;4.86;79.15;99400.47;5048438;28;20136;-67
2021/12/28 10:30:10;;;;;;;35.17;17.02;;;;;;;5.47;76.82;99392.13;5048135;28;20068;-67
2021/12/28 10:32:37;;;;;;;32.35;16.05;;;;;;;5.31;77.66;99388.66;5048530;28;20072;-67
2021/12/28 10:35:08;;;;;;;36.88;17.92;;;;;;;5.01;78.50;99387.63;5041630;28;20053;-67
2021/12/28 10:37:36;;;;;;;35.78;17.25;;;;;;;4.95;79.32;99390.53;5046890;28;20050;-67
2021/12/28 10:40:06;;;;;;;32.58;16.83;;;;;;;4.73;80.69;99388.16;5052203;28;20067;-67
2021/12/28 10:42:48;;;;;;;34.00;16.30;;;;;;;4.58;80.94;99383.72;5052823;28;20075;-67
2021/12/28 10:45:17;;;;;;;31.67;15.55;;;;;;;4.69;80.95;99371.06;5052779;28;20166;-67
2021/12/28 10:47:44;;;;;;;32.45;15.55;;;;;;;4.72;80.63;99371.75;5051799;28;20493;-68
2021/12/28 10:50:27;;;;;;;37.33;17.33;;;;;;;4.46;81.95;99361.78;5051487;28;20095;-68
2021/12/28 10:53:04;;;;;;;35.72;15.63;;;;;;;4.15;83.69;99370.19;5051201;28;20060;-67
2021/12/28 10:55:30;;;;;;;32.90;15.50;;;;;;;4.54;82.55;99364.84;5052189;28;20052;-67
2021/12/28 10:57:57;;;;;;;34.40;16.48;;;;;;;4.34;82.84;99359.78;5051482;28;20068;-67
2021/12/28 11:00:26;;;;;;;30.30;15.25;;;;;;;4.32;82.88;99361.63;5051321;28;20037;-67
2021/12/28 11:03:13;;;;;;;30.75;14.57;;;;;;;4.66;82.45;99366.00;5052324;28;20044;-67
2021/12/28 11:05:44;;;;;;;37.30;16.42;;;;;;;4.58;82.08;99345.59;5044996;28;20065;-67
2021/12/28 11:08:10;;;;;;;30.33;13.90;;;;;;;4.80;81.83;99346.22;5043274;28;20490;-67
2021/12/28 11:10:42;;;;;;;31.48;15.25;;;;;;;4.74;81.56;99338.72;5040436;28;20390;-67
2021/12/28 11:13:09;;;;;;;26.42;14.13;;;;;;;4.63;82.20;99329.78;5052103;28;20045;-67
2021/12/28 11:15:37;;;;;;;28.05;15.05;;;;;;;4.87;81.98;99323.38;5051563;28;20122;-67
2021/12/28 11:18:17;;;;;;;34.72;16.02;;;;;;;5.13;80.56;99319.44;5051629;28;20043;-67
2021/12/28 11:20:46;;;;;;;38.63;17.58;;;;;;;4.76;82.27;99308.34;5043434;28;20483;-67
2021/12/28 11:23:14;;;;;;;30.10;15.82;;;;;;;4.85;82.18;99307.88;5052069;28;20048;-67
2021/12/28 11:25:40;;;;;;;32.33;15.82;;;;;;;4.88;81.20;99310.31;5052010;28;20421;-67